createdAt,value
2023-04-30T00:01:30.048Z,20.89
2023-04-30T00:03:57.662Z,20.89
2023-04-30T00:06:26.865Z,20.89
2023-04-30T00:08:55.634Z,20.90
2023-04-30T00:11:22.985Z,20.89
2023-04-30T00:13:50.733Z,20.89
2023-04-30T00:16:18.624Z,20.88
2023-04-30T00:18:46.030Z,20.88
2023-04-30T00:21:13.289Z,20.88
2023-04-30T00:23:40.540Z,20.89
2023-04-30T00:26:07.832Z,20.88
2023-04-30T00:28:36.667Z,20.87
2023-04-30T00:31:06.885Z,20.87
2023-04-30T00:33:34.212Z,20.87
2023-04-30T00:36:01.712Z,20.88
2023-04-30T00:38:29.206Z,20.87
2023-04-30T00:40:56.605Z,20.86
2023-04-30T00:43:24.523Z,20.87
2023-04-30T00:45:51.945Z,20.87
2023-04-30T00:48:19.605Z,20.86
2023-04-30T00:50:46.888Z,20.86
2023-04-30T00:53:14.272Z,20.87
2023-04-30T00:55:42.165Z,20.86
2023-04-30T00:58:09.590Z,20.86
2023-04-30T01:00:36.954Z,20.85
2023-04-30T01:03:04.462Z,20.85
2023-04-30T01:05:31.732Z,20.85
2023-04-30T01:07:58.910Z,20.86
2023-04-30T01:10:48.907Z,20.85
2023-04-30T01:13:19.979Z,20.85
2023-04-30T01:16:15.223Z,20.85
2023-04-30T01:18:49.204Z,20.86
2023-04-30T01:21:20.086Z,20.87
2023-04-30T01:24:15.701Z,20.88
2023-04-30T01:27:21.703Z,20.87
2023-04-30T01:29:50.643Z,20.87
2023-04-30T01:32:18.046Z,20.87
2023-04-30T01:34:45.354Z,20.86
2023-04-30T01:37:41.255Z,20.85
2023-04-30T01:40:20.685Z,20.85
2023-04-30T01:43:17.938Z,20.85
2023-04-30T01:46:05.253Z,20.86
2023-04-30T01:48:53.633Z,20.86
2023-04-30T01:51:30.794Z,20.86
2023-04-30T01:54:03.378Z,20.85
2023-04-30T01:56:41.308Z,20.85
2023-04-30T01:59:10.290Z,20.84
2023-04-30T02:01:37.699Z,20.84
2023-04-30T02:04:05.477Z,20.83
2023-04-30T02:06:33.405Z,20.84
2023-04-30T02:09:05.489Z,20.84
2023-04-30T02:11:33.033Z,20.83
2023-04-30T02:14:00.345Z,20.84
2023-04-30T02:16:27.787Z,20.83
2023-04-30T02:18:55.575Z,20.83
2023-04-30T02:21:22.941Z,20.84
2023-04-30T02:23:50.311Z,20.82
2023-04-30T02:26:17.573Z,20.83
2023-04-30T02:28:44.863Z,20.83
2023-04-30T02:31:12.238Z,20.82
2023-04-30T02:33:39.539Z,20.82
2023-04-30T02:36:07.121Z,20.83
2023-04-30T02:38:34.402Z,20.82
2023-04-30T02:41:02.402Z,20.83
2023-04-30T02:43:29.701Z,20.82
2023-04-30T02:45:57.067Z,20.83
2023-04-30T02:48:24.458Z,20.82
2023-04-30T02:50:51.656Z,20.82
2023-04-30T02:53:19.326Z,20.81
2023-04-30T02:55:46.654Z,20.80
2023-04-30T02:58:13.846Z,20.80
2023-04-30T03:00:41.464Z,20.80
2023-04-30T03:03:09.124Z,20.80
2023-04-30T03:05:36.588Z,20.80
2023-04-30T03:08:03.913Z,20.80
2023-04-30T03:10:31.165Z,20.81
2023-04-30T03:12:58.513Z,20.80
2023-04-30T03:15:26.038Z,20.79
2023-04-30T03:17:53.249Z,20.79
2023-04-30T03:20:20.879Z,20.79
2023-04-30T03:22:48.143Z,20.78
2023-04-30T03:25:15.693Z,20.78
2023-04-30T03:27:42.977Z,20.78
2023-04-30T03:30:10.508Z,20.79
2023-04-30T03:32:38.949Z,20.78
2023-04-30T03:35:06.916Z,20.77
2023-04-30T03:37:34.233Z,20.77
2023-04-30T03:40:01.815Z,20.77
2023-04-30T03:42:29.168Z,20.77
2023-04-30T03:44:56.458Z,20.77
2023-04-30T03:47:24.507Z,20.76
2023-04-30T03:49:55.516Z,20.77
2023-04-30T03:52:23.587Z,20.77
2023-04-30T03:54:51.137Z,20.77
2023-04-30T03:57:20.041Z,20.76
2023-04-30T03:59:47.716Z,20.75
2023-04-30T04:02:16.210Z,20.75
2023-04-30T04:04:44.133Z,20.75
2023-04-30T04:07:11.616Z,20.74
2023-04-30T04:09:39.190Z,20.75
2023-04-30T04:12:06.540Z,20.74
2023-04-30T04:14:34.187Z,20.74
2023-04-30T04:17:02.359Z,20.73
2023-04-30T04:19:30.712Z,20.74
2023-04-30T04:21:58.520Z,20.74
2023-04-30T04:24:26.353Z,20.74
2023-04-30T04:26:53.989Z,20.74
2023-04-30T04:29:21.712Z,20.74
2023-04-30T04:31:51.143Z,20.74
2023-04-30T04:34:20.093Z,20.73
2023-04-30T04:36:47.776Z,20.74
2023-04-30T04:39:15.388Z,20.74
2023-04-30T04:41:42.756Z,20.72
2023-04-30T04:44:10.210Z,20.74
2023-04-30T04:46:42.297Z,20.73
2023-04-30T04:49:09.940Z,20.72
2023-04-30T04:51:37.288Z,20.72
2023-04-30T04:54:04.652Z,20.72
2023-04-30T04:56:32.049Z,20.72
2023-04-30T04:58:59.370Z,20.72
2023-04-30T05:01:27.141Z,20.72
2023-04-30T05:03:55.261Z,20.72
2023-04-30T05:06:22.923Z,20.72
2023-04-30T05:08:50.438Z,20.72
2023-04-30T05:11:17.805Z,20.72
2023-04-30T05:13:45.174Z,20.72
2023-04-30T05:16:12.478Z,20.72
2023-04-30T05:18:39.754Z,20.71
2023-04-30T05:21:07.014Z,20.72
2023-04-30T05:23:34.283Z,20.71
2023-04-30T05:26:02.375Z,20.72
2023-04-30T05:28:29.641Z,20.72
2023-04-30T05:30:56.944Z,20.72
2023-04-30T05:33:24.298Z,20.71
2023-04-30T05:35:51.541Z,20.71
2023-04-30T05:38:18.825Z,20.73
2023-04-30T05:40:46.178Z,20.72
2023-04-30T05:43:13.444Z,20.71
2023-04-30T05:45:40.734Z,20.72
2023-04-30T05:48:08.021Z,20.71
2023-04-30T05:50:35.211Z,20.71
2023-04-30T05:53:02.505Z,20.72
2023-04-30T05:55:29.870Z,20.71
2023-04-30T05:57:57.135Z,20.71
2023-04-30T06:00:24.449Z,20.71
2023-04-30T06:02:53.115Z,20.71
2023-04-30T06:05:20.603Z,20.71
2023-04-30T06:07:47.987Z,20.71
2023-04-30T06:10:15.441Z,20.71
2023-04-30T06:12:42.816Z,20.71
2023-04-30T06:15:10.490Z,20.71
2023-04-30T06:17:37.839Z,20.71
2023-04-30T06:20:07.290Z,20.72
2023-04-30T06:22:34.611Z,20.71
2023-04-30T06:25:01.988Z,20.71
2023-04-30T06:27:29.325Z,20.72
2023-04-30T06:29:56.759Z,20.72
2023-04-30T06:32:27.208Z,20.73
2023-04-30T06:34:55.911Z,20.74
2023-04-30T06:37:23.174Z,20.73
2023-04-30T06:39:51.648Z,20.73
2023-04-30T06:42:18.885Z,20.73
2023-04-30T06:44:47.251Z,20.73
2023-04-30T06:47:14.491Z,20.73
2023-04-30T06:49:41.812Z,20.72
2023-04-30T06:52:09.027Z,20.73
2023-04-30T06:54:36.287Z,20.73
2023-04-30T06:57:03.629Z,20.73
2023-04-30T06:59:31.239Z,20.73
2023-04-30T07:01:58.520Z,20.73
2023-04-30T07:04:26.246Z,20.73
2023-04-30T07:06:53.623Z,20.72
2023-04-30T07:09:20.898Z,20.73
2023-04-30T07:11:48.217Z,20.72
2023-04-30T07:14:15.484Z,20.72
2023-04-30T07:16:42.770Z,20.73
2023-04-30T07:19:09.989Z,20.73
2023-04-30T07:21:38.380Z,20.74
2023-04-30T07:24:06.029Z,20.74
2023-04-30T07:26:33.436Z,20.74
2023-04-30T07:29:00.780Z,20.76
2023-04-30T07:31:28.525Z,20.77
2023-04-30T07:33:56.112Z,20.77
2023-04-30T07:36:23.340Z,20.77
2023-04-30T07:38:50.725Z,20.78
2023-04-30T07:41:17.886Z,20.78
2023-04-30T07:43:45.209Z,20.78
2023-04-30T07:46:12.539Z,20.78
2023-04-30T07:48:39.769Z,20.79
2023-04-30T07:51:07.133Z,20.80
2023-04-30T07:53:34.582Z,20.79
2023-04-30T07:56:01.936Z,20.80
2023-04-30T07:58:31.842Z,20.81
2023-04-30T08:00:59.090Z,20.81
2023-04-30T08:03:26.383Z,20.82
2023-04-30T08:05:53.870Z,20.83
2023-04-30T08:08:21.290Z,20.83
2023-04-30T08:10:48.648Z,20.83
2023-04-30T08:13:16.177Z,20.83
2023-04-30T08:15:43.614Z,20.84
2023-04-30T08:18:12.196Z,20.84
2023-04-30T08:20:39.561Z,20.84
2023-04-30T08:23:09.954Z,20.85
2023-04-30T08:25:37.500Z,20.84
2023-04-30T08:28:05.149Z,20.85
2023-04-30T08:30:32.628Z,20.86
2023-04-30T08:33:00.278Z,20.87
2023-04-30T08:35:29.821Z,20.88
2023-04-30T08:37:57.361Z,20.89
2023-04-30T08:40:43.836Z,20.89
2023-04-30T08:43:13.049Z,20.90
2023-04-30T08:45:44.337Z,20.92
2023-04-30T08:48:14.109Z,20.93
2023-04-30T08:50:41.681Z,20.93
2023-04-30T08:53:14.330Z,20.93
2023-04-30T08:55:41.986Z,20.94
2023-04-30T08:58:10.614Z,20.95
2023-04-30T09:00:39.697Z,20.96
2023-04-30T09:03:08.429Z,20.96
2023-04-30T09:05:47.346Z,20.98
2023-04-30T09:08:19.801Z,20.98
2023-04-30T09:10:47.263Z,20.99
2023-04-30T09:13:16.172Z,21.01
2023-04-30T09:15:45.922Z,21.01
2023-04-30T09:18:22.552Z,21.02
2023-04-30T09:20:57.477Z,21.03
2023-04-30T09:23:27.035Z,21.04
2023-04-30T09:25:54.560Z,21.05
2023-04-30T09:28:24.612Z,21.05
2023-04-30T09:30:54.194Z,21.05
2023-04-30T09:33:22.151Z,21.05
2023-04-30T09:35:51.858Z,21.05
2023-04-30T09:38:46.014Z,21.06
2023-04-30T09:41:28.460Z,21.05
2023-04-30T09:43:56.681Z,21.04
2023-04-30T09:46:37.330Z,21.06
2023-04-30T09:49:08.020Z,21.08
2023-04-30T09:51:35.797Z,21.08
2023-04-30T09:54:04.654Z,21.09
2023-04-30T09:56:35.659Z,21.11
2023-04-30T09:59:07.230Z,21.16
2023-04-30T10:01:39.651Z,21.19
2023-04-30T10:04:08.775Z,21.19
2023-04-30T10:06:37.179Z,21.17
2023-04-30T10:09:08.821Z,21.16
2023-04-30T10:11:38.190Z,21.16
2023-04-30T10:14:11.789Z,21.16
2023-04-30T10:16:54.201Z,21.16
2023-04-30T10:19:26.467Z,21.18
2023-04-30T10:21:53.940Z,21.18
2023-04-30T10:24:21.641Z,21.18
2023-04-30T10:26:50.004Z,21.19
2023-04-30T10:29:18.464Z,21.18
2023-04-30T10:31:48.730Z,21.19
2023-04-30T10:34:29.363Z,21.20
2023-04-30T10:37:00.416Z,21.21
2023-04-30T10:39:28.951Z,21.20
2023-04-30T10:42:08.158Z,21.21
2023-04-30T10:44:39.409Z,21.22
2023-04-30T10:47:08.067Z,21.22
2023-04-30T10:49:35.962Z,21.21
2023-04-30T10:52:05.056Z,21.21
2023-04-30T10:54:36.757Z,21.21
2023-04-30T10:57:16.936Z,21.21
2023-04-30T11:00:15.150Z,21.21
2023-04-30T11:02:50.069Z,21.19
2023-04-30T11:05:19.003Z,21.18
2023-04-30T11:07:58.880Z,21.18
2023-04-30T11:10:28.659Z,21.18
2023-04-30T11:12:56.216Z,21.17
2023-04-30T11:15:31.908Z,21.17
2023-04-30T11:18:02.263Z,21.18
2023-04-30T11:20:29.721Z,21.19
2023-04-30T11:23:21.820Z,21.19
2023-04-30T11:25:55.641Z,21.20
2023-04-30T11:28:27.846Z,21.21
2023-04-30T11:31:00.326Z,21.21
2023-04-30T11:33:32.879Z,21.21
2023-04-30T11:36:01.813Z,21.21
2023-04-30T11:38:31.658Z,21.22
2023-04-30T11:40:59.171Z,21.22
2023-04-30T11:43:31.348Z,21.23
2023-04-30T11:46:13.335Z,21.24
2023-04-30T11:48:43.596Z,21.24
2023-04-30T11:51:25.086Z,21.22
2023-04-30T11:53:53.619Z,21.24
2023-04-30T11:56:22.592Z,21.23
2023-04-30T11:58:51.512Z,21.22
2023-04-30T12:01:20.966Z,21.22
2023-04-30T12:03:50.991Z,21.22
2023-04-30T12:06:23.867Z,21.21
2023-04-30T12:08:55.264Z,21.21
2023-04-30T12:11:27.816Z,21.19
2023-04-30T12:14:16.671Z,21.19
2023-04-30T12:16:51.254Z,21.19
2023-04-30T12:19:21.403Z,21.19
2023-04-30T12:21:49.682Z,21.18
2023-04-30T12:24:18.297Z,21.17
2023-04-30T12:26:46.129Z,21.16
2023-04-30T12:29:16.881Z,21.16
2023-04-30T12:31:45.803Z,21.15
2023-04-30T12:34:14.709Z,21.14
2023-04-30T12:36:45.382Z,21.14
2023-04-30T12:39:16.060Z,21.13
2023-04-30T12:41:45.878Z,21.13
2023-04-30T12:44:20.629Z,21.13
2023-04-30T12:46:50.516Z,21.11
2023-04-30T12:49:31.010Z,21.10
2023-04-30T12:52:01.904Z,21.11
2023-04-30T12:54:33.469Z,21.11
2023-04-30T12:57:04.865Z,21.11
2023-04-30T12:59:34.330Z,21.13
2023-04-30T13:02:08.550Z,21.12
2023-04-30T13:04:36.584Z,21.13
2023-04-30T13:07:04.686Z,21.14
2023-04-30T13:09:33.753Z,21.15
2023-04-30T13:12:01.902Z,21.16
2023-04-30T13:14:29.576Z,21.15
2023-04-30T13:16:57.097Z,21.16
2023-04-30T13:19:24.627Z,21.17
2023-04-30T13:21:51.929Z,21.17
2023-04-30T13:24:19.245Z,21.18
2023-04-30T13:26:47.546Z,21.18
2023-04-30T13:29:15.060Z,21.18
2023-04-30T13:31:42.567Z,21.18
2023-04-30T13:34:10.259Z,21.19
2023-04-30T13:36:37.624Z,21.20
2023-04-30T13:39:05.416Z,21.19
2023-04-30T13:41:32.812Z,21.20
2023-04-30T13:44:00.311Z,21.20
2023-04-30T13:46:27.689Z,21.20
2023-04-30T13:48:55.055Z,21.21
2023-04-30T13:51:22.317Z,21.21
2023-04-30T13:53:49.502Z,21.21
2023-04-30T13:56:16.791Z,21.22
2023-04-30T13:58:44.268Z,21.22
2023-04-30T14:01:12.070Z,21.21
2023-04-30T14:03:39.500Z,21.22
2023-04-30T14:06:06.914Z,21.22
2023-04-30T14:08:34.240Z,21.23
2023-04-30T14:11:01.650Z,21.22
2023-04-30T14:13:31.218Z,21.23
2023-04-30T14:15:58.634Z,21.23
2023-04-30T14:18:26.760Z,21.23
2023-04-30T14:20:53.957Z,21.23
2023-04-30T14:23:21.254Z,21.24
2023-04-30T14:25:48.550Z,21.24
2023-04-30T14:28:15.785Z,21.23
2023-04-30T14:30:43.661Z,21.24
2023-04-30T14:33:12.547Z,21.26
2023-04-30T14:35:40.017Z,21.24
2023-04-30T14:38:07.456Z,21.26
2023-04-30T14:40:35.686Z,21.26
2023-04-30T14:43:02.999Z,21.25
2023-04-30T14:45:30.786Z,21.25
2023-04-30T14:47:58.253Z,21.26
2023-04-30T14:50:25.567Z,21.26
2023-04-30T14:52:53.130Z,21.27
2023-04-30T14:55:20.507Z,21.25
2023-04-30T14:57:47.733Z,21.27
2023-04-30T15:00:16.537Z,21.27
2023-04-30T15:02:43.838Z,21.26
2023-04-30T15:05:11.424Z,21.26
2023-04-30T15:07:38.757Z,21.26
2023-04-30T15:10:06.893Z,21.26
2023-04-30T15:12:35.659Z,21.27
2023-04-30T15:15:04.676Z,21.27
2023-04-30T15:17:34.837Z,21.28
2023-04-30T15:20:03.908Z,21.28
2023-04-30T15:22:31.490Z,21.28
2023-04-30T15:24:59.193Z,21.29
2023-04-30T15:27:31.190Z,21.29
2023-04-30T15:29:59.150Z,21.29
2023-04-30T15:32:26.435Z,21.30
2023-04-30T15:34:54.293Z,21.28
2023-04-30T15:37:21.564Z,21.28
2023-04-30T15:39:49.941Z,21.29
2023-04-30T15:42:17.434Z,21.28
2023-04-30T15:44:44.732Z,21.29
2023-04-30T15:47:12.723Z,21.29
2023-04-30T15:49:39.993Z,21.29
2023-04-30T15:52:07.155Z,21.30
2023-04-30T15:54:34.387Z,21.29
2023-04-30T15:57:03.976Z,21.29
2023-04-30T15:59:31.260Z,21.30
2023-04-30T16:01:58.632Z,21.31
2023-04-30T16:04:26.316Z,21.30
2023-04-30T16:06:53.899Z,21.32
2023-04-30T16:09:21.194Z,21.32
2023-04-30T16:11:49.296Z,21.32
2023-04-30T16:14:16.747Z,21.33
2023-04-30T16:16:43.957Z,21.32
2023-04-30T16:19:12.537Z,21.33
2023-04-30T16:21:40.600Z,21.33
2023-04-30T16:24:08.807Z,21.33
2023-04-30T16:26:37.128Z,21.33
2023-04-30T16:29:07.822Z,21.33
2023-04-30T16:31:35.738Z,21.33
2023-04-30T16:34:03.083Z,21.31
2023-04-30T16:36:31.171Z,21.33
2023-04-30T16:38:58.518Z,21.31
2023-04-30T16:41:26.371Z,21.32
2023-04-30T16:43:54.252Z,21.32
2023-04-30T16:46:21.633Z,21.32
2023-04-30T16:48:49.954Z,21.32
2023-04-30T16:51:17.365Z,21.32
2023-04-30T16:53:44.667Z,21.33
2023-04-30T16:56:11.928Z,21.33
2023-04-30T16:58:39.330Z,21.33
2023-04-30T17:01:06.840Z,21.32
2023-04-30T17:03:35.070Z,21.32
2023-04-30T17:06:04.389Z,21.33
2023-04-30T17:08:31.952Z,21.32
2023-04-30T17:10:59.793Z,21.33
2023-04-30T17:13:27.362Z,21.33
2023-04-30T17:16:01.754Z,21.34
2023-04-30T17:18:29.701Z,21.33
2023-04-30T17:20:56.963Z,21.35
2023-04-30T17:23:25.495Z,21.35
2023-04-30T17:25:53.043Z,21.35
2023-04-30T17:28:20.289Z,21.36
2023-04-30T17:30:48.169Z,21.36
2023-04-30T17:33:15.638Z,21.36
2023-04-30T17:35:43.895Z,21.36
2023-04-30T17:38:11.365Z,21.36
2023-04-30T17:40:39.077Z,21.36
2023-04-30T17:43:07.417Z,21.36
2023-04-30T17:45:34.768Z,21.36
2023-04-30T17:48:02.035Z,21.33
2023-04-30T17:50:29.468Z,21.32
2023-04-30T17:52:57.850Z,21.29
2023-04-30T17:55:25.758Z,21.27
2023-04-30T17:57:53.163Z,21.24
2023-04-30T18:00:20.514Z,21.23
2023-04-30T18:02:48.300Z,21.22
2023-04-30T18:05:15.657Z,21.21
2023-04-30T18:07:42.913Z,21.22
2023-04-30T18:10:10.493Z,21.20
2023-04-30T18:12:38.448Z,21.19
2023-04-30T18:15:08.511Z,21.20
2023-04-30T18:17:37.237Z,21.21
2023-04-30T18:20:05.807Z,21.21
2023-04-30T18:22:33.149Z,21.22
2023-04-30T18:25:00.603Z,21.23
2023-04-30T18:27:27.902Z,21.23
2023-04-30T18:29:56.617Z,21.24
2023-04-30T18:32:24.148Z,21.24
2023-04-30T18:34:51.569Z,21.24
2023-04-30T18:37:18.939Z,21.24
2023-04-30T18:39:46.264Z,21.26
2023-04-30T18:42:13.479Z,21.27
2023-04-30T18:44:40.818Z,21.27
2023-04-30T18:47:08.215Z,21.27
2023-04-30T18:49:35.581Z,21.28
2023-04-30T18:52:02.965Z,21.27
2023-04-30T18:54:30.191Z,21.28
2023-04-30T18:56:57.586Z,21.28
2023-04-30T18:59:27.467Z,21.28
2023-04-30T19:01:55.835Z,21.27
2023-04-30T19:04:23.145Z,21.28
2023-04-30T19:06:52.304Z,21.29
2023-04-30T19:09:19.714Z,21.28
2023-04-30T19:11:47.095Z,21.29
2023-04-30T19:14:14.535Z,21.29
2023-04-30T19:16:41.906Z,21.28
2023-04-30T19:19:09.490Z,21.30
2023-04-30T19:21:36.752Z,21.30
2023-04-30T19:24:04.160Z,21.30
2023-04-30T19:26:32.862Z,21.30
2023-04-30T19:29:00.236Z,21.29
2023-04-30T19:31:27.664Z,21.31
2023-04-30T19:33:54.973Z,21.31
2023-04-30T19:36:22.174Z,21.31
2023-04-30T19:38:51.365Z,21.31
2023-04-30T19:41:18.691Z,21.31
2023-04-30T19:43:46.154Z,21.31
2023-04-30T19:46:13.498Z,21.31
2023-04-30T19:48:41.026Z,21.31
2023-04-30T19:51:09.231Z,21.31
2023-04-30T19:53:36.800Z,21.31
2023-04-30T19:56:04.218Z,21.30
2023-04-30T19:58:31.495Z,21.29
2023-04-30T20:01:00.268Z,21.31
2023-04-30T20:03:28.405Z,21.31
2023-04-30T20:05:56.261Z,21.31
2023-04-30T20:08:23.805Z,21.30
2023-04-30T20:10:51.252Z,21.30
2023-04-30T20:13:18.687Z,21.31
2023-04-30T20:15:46.050Z,21.31
2023-04-30T20:18:13.283Z,21.31
2023-04-30T20:20:40.579Z,21.30
2023-04-30T20:23:16.185Z,21.31
2023-04-30T20:25:45.065Z,21.31
2023-04-30T20:28:14.320Z,21.31
2023-04-30T20:30:43.024Z,21.30
2023-04-30T20:33:11.986Z,21.31
2023-04-30T20:35:40.941Z,21.31
2023-04-30T20:38:08.496Z,21.31
2023-04-30T20:40:35.853Z,21.31
2023-04-30T20:43:03.108Z,21.31
2023-04-30T20:45:30.779Z,21.31
2023-04-30T20:47:58.642Z,21.32
2023-04-30T20:50:27.571Z,21.31
2023-04-30T20:52:54.829Z,21.32
2023-04-30T20:55:22.154Z,21.31
2023-04-30T20:57:49.756Z,21.32
2023-04-30T21:00:17.627Z,21.30
2023-04-30T21:02:45.437Z,21.31
2023-04-30T21:05:12.872Z,21.30
2023-04-30T21:07:40.152Z,21.31
2023-04-30T21:10:08.965Z,21.30
2023-04-30T21:12:36.210Z,21.29
2023-04-30T21:15:04.417Z,21.30
2023-04-30T21:17:31.811Z,21.31
2023-04-30T21:20:00.514Z,21.31
2023-04-30T21:22:28.767Z,21.31
2023-04-30T21:24:57.052Z,21.31
2023-04-30T21:27:24.452Z,21.31
2023-04-30T21:29:51.809Z,21.31
2023-04-30T21:32:19.182Z,21.31
2023-04-30T21:34:46.398Z,21.31
2023-04-30T21:37:16.339Z,21.31
2023-04-30T21:39:44.367Z,21.31
2023-04-30T21:42:11.638Z,21.31
2023-04-30T21:44:39.946Z,21.30
2023-04-30T21:47:10.564Z,21.31
2023-04-30T21:49:37.929Z,21.32
2023-04-30T21:52:08.201Z,21.31
2023-04-30T21:54:35.505Z,21.33
2023-04-30T21:57:02.888Z,21.34
2023-04-30T21:59:30.161Z,21.35
2023-04-30T22:04:26.659Z,21.35
2023-04-30T22:06:54.393Z,21.35
2023-04-30T22:09:21.733Z,21.33
2023-04-30T22:11:50.385Z,21.32
2023-04-30T22:14:17.785Z,21.33
2023-04-30T22:16:45.016Z,21.33
2023-04-30T22:19:12.587Z,21.32
2023-04-30T22:21:40.006Z,21.33
2023-04-30T22:24:07.642Z,21.32
2023-04-30T22:26:34.872Z,21.33
2023-04-30T22:29:02.065Z,21.32
2023-04-30T22:31:29.474Z,21.32
2023-04-30T22:33:56.742Z,21.32
2023-04-30T22:36:24.212Z,21.32
2023-04-30T22:38:51.500Z,21.32
2023-04-30T22:41:18.938Z,21.31
2023-04-30T22:43:47.535Z,21.32
2023-04-30T22:46:15.584Z,21.32
2023-04-30T22:48:44.392Z,21.31
2023-04-30T22:51:11.799Z,21.32
2023-04-30T22:53:39.134Z,21.31
2023-04-30T22:56:06.710Z,21.32
2023-04-30T22:58:33.973Z,21.32
2023-04-30T23:01:01.339Z,21.31
2023-04-30T23:03:28.837Z,21.32
2023-04-30T23:05:59.152Z,21.32
2023-04-30T23:08:26.524Z,21.31
2023-04-30T23:10:55.588Z,21.31
2023-04-30T23:13:23.080Z,21.32
2023-04-30T23:15:50.282Z,21.33
2023-04-30T23:18:17.831Z,21.32
2023-04-30T23:20:45.134Z,21.34
2023-04-30T23:23:12.529Z,21.34
2023-04-30T23:25:39.820Z,21.34
2023-04-30T23:28:07.111Z,21.33
2023-04-30T23:30:38.834Z,21.33
2023-04-30T23:33:06.162Z,21.33
2023-04-30T23:35:33.676Z,21.33
2023-04-30T23:38:00.908Z,21.32
2023-04-30T23:40:28.112Z,21.32
2023-04-30T23:42:55.514Z,21.30
2023-04-30T23:45:22.731Z,21.31
2023-04-30T23:47:50.052Z,21.30
2023-04-30T23:50:17.566Z,21.29
2023-04-30T23:52:44.864Z,21.28
2023-04-30T23:55:12.176Z,21.27
2023-04-30T23:57:39.456Z,21.28
